Terminal Aerodrome Forecast
Issued by NWS

Home | Current Version | Previous Version | Text Only | Print | Product List | Glossary On
Versions: 1 2 3 4 5 6 7 8 9 10 11 12 13 14
000
FTUS44 KLZK 301200 AAA
TAFLLQ
TAF AMD
KLLQ 301227Z 3012/3112 20003KT 5SM -SHRA BR BKN025 OVC050
      TEMPO 3012/3014 2SM -RA BR BKN005
     FM301800 19007KT P6SM SCT050 BKN100
     FM310000 17007KT P6SM -SHRA VCTS SCT015 OVC025CB
      TEMPO 3100/3104 -TSRA BKN015CB=

USA.gov is the U.S. government's official web portal to all federal, state and local government web resources and services.